Big Bear Station Historical Data
Daily Summary for November 8, 2017 Units:  English    Metric   Both
« Previous Day
Next Day »
Daily Weekly Monthly Yearly Custom
  High: Low: Average:
Temperature: 56.8 °F 31.1 °F 41.8 °F
Dew Point: 44.3 °F 27.8 °F 36.8 °F
Humidity: 99 % 55 % 83 %
Wind Speed: 7.3 mph 0.0 mph 1.3 mph
Wind Gust: -999.0 mph - -
Wind:- - SW
Pressure: 30.21 in 30.14 in -
Precipitation: 0.00 in    
Historical Graphs
 
 
Tabular Data for November 8, 2017
Time Temperature Dew Point Pressure Wind Wind Speed Wind Gust Humidity Rainfall Rate (Hourly)
00:01 36.0 °F 34.2 °F 30.21 in Calm   -999.0 mph 93 % 0 in
00:16 35.6 °F 33.8 °F 30.20 in Calm   -999.0 mph 93 % 0 in
00:31 35.2 °F 33.6 °F 30.21 in Calm   -999.0 mph 94 % 0 in
00:47 35.2 °F 33.6 °F 30.20 in Calm   -999.0 mph 94 % 0 in
01:02 35.1 °F 33.5 °F 30.20 in Calm   -999.0 mph 94 % 0 in
01:17 34.9 °F 33.6 °F 30.20 in Calm   -999.0 mph 95 % 0 in
01:32 34.7 °F 33.4 °F 30.19 in Calm   -999.0 mph 95 % 0 in
01:47 34.5 °F 33.2 °F 30.19 in Calm   -999.0 mph 95 % 0 in
02:18 34.0 °F 33.0 °F 30.19 in Calm   -999.0 mph 96 % 0 in
02:34 34.0 °F 33.0 °F 30.19 in Calm   -999.0 mph 96 % 0 in
02:49 34.0 °F 33.0 °F 30.19 in Calm   -999.0 mph 96 % 0 in
03:04 33.8 °F 33.0 °F 30.19 in Calm   -999.0 mph 97 % 0 in
03:19 33.6 °F 32.8 °F 30.19 in Calm   -999.0 mph 97 % 0 in
03:35 33.3 °F 32.5 °F 30.19 in Calm   -999.0 mph 97 % 0 in
03:50 33.1 °F 32.3 °F 30.19 in Calm   -999.0 mph 97 % 0 in
04:05 32.5 °F 31.7 °F 30.19 in Calm   -999.0 mph 97 % 0 in
04:20 32.2 °F 31.4 °F 30.19 in Calm   -999.0 mph 97 % 0 in
04:35 32.5 °F 31.7 °F 30.19 in Calm   -999.0 mph 97 % 0 in
04:51 32.7 °F 32.2 °F 30.19 in Calm   -999.0 mph 98 % 0 in
05:06 32.9 °F 32.4 °F 30.19 in Calm   -999.0 mph 98 % 0 in
05:21 32.2 °F 31.7 °F 30.20 in Calm   -999.0 mph 98 % 0 in
05:36 32.2 °F 31.7 °F 30.20 in Calm   -999.0 mph 98 % 0 in
05:51 31.6 °F 31.1 °F 30.20 in Calm   -999.0 mph 98 % 0 in
06:07 31.5 °F 31.0 °F 30.20 in Calm   -999.0 mph 98 % 0 in
06:22 31.1 °F 30.6 °F 30.19 in Calm   -999.0 mph 98 % 0 in
06:37 31.5 °F 31.0 °F 30.19 in Calm   -999.0 mph 98 % 0 in
06:52 31.6 °F 31.1 °F 30.19 in Calm   -999.0 mph 98 % 0 in
07:07 31.6 °F 31.1 °F 30.19 in Calm   -999.0 mph 98 % 0 in
07:23 31.6 °F 31.1 °F 30.19 in Calm   -999.0 mph 98 % 0 in
07:53 33.1 °F 32.8 °F 30.19 in Calm   -999.0 mph 99 % 0 in
08:08 34.5 °F 34.2 °F 30.20 in Calm   -999.0 mph 99 % 0 in
08:24 36.7 °F 36.4 °F 30.20 in Calm   -999.0 mph 99 % 0 in
08:39 42.4 °F 39.1 °F 30.20 in ESE 1.7 mph -999.0 mph 88 % 0 in
08:54 44.4 °F 39.9 °F 30.20 in NNE 1.1 mph -999.0 mph 84 % 0 in
09:24 48.0 °F 39.4 °F 30.20 in WNW 4.7 mph -999.0 mph 72 % 0 in
09:40 48.4 °F 40.5 °F 30.20 in NNW 4.7 mph -999.0 mph 74 % 0 in
10:10 50.5 °F 42.2 °F 30.21 in ENE 2.2 mph -999.0 mph 73 % 0 in
10:25 52.0 °F 42.1 °F 30.21 in SSW 5.8 mph -999.0 mph 69 % 0 in
10:40 51.3 °F 42.2 °F 30.21 in Calm   -999.0 mph 71 % 0 in
10:56 52.3 °F 42.1 °F 30.21 in NW 2.2 mph -999.0 mph 68 % 0 in
11:11 53.1 °F 42.0 °F 30.20 in NNW 2.7 mph -999.0 mph 66 % 0 in
11:27 53.2 °F 41.7 °F 30.20 in North 2.7 mph -999.0 mph 65 % 0 in
11:42 55.4 °F 41.7 °F 30.19 in SE 3.7 mph -999.0 mph 60 % 0 in
11:57 55.8 °F 41.7 °F 30.18 in NNE 3.2 mph -999.0 mph 59 % 0 in
12:13 55.2 °F 41.6 °F 30.17 in NNW 4.2 mph -999.0 mph 60 % 0 in
12:28 55.8 °F 41.7 °F 30.17 in NNW 2.2 mph -999.0 mph 59 % 0 in
12:43 56.8 °F 40.8 °F 30.17 in ENE 7.3 mph -999.0 mph 55 % 0 in
12:58 55.4 °F 41.7 °F 30.16 in West 1.1 mph -999.0 mph 60 % 0 in
13:13 53.6 °F 42.9 °F 30.16 in WNW 4.2 mph -999.0 mph 67 % 0 in
13:29 52.0 °F 44.0 °F 30.17 in NW 4.2 mph -999.0 mph 74 % 0 in
13:44 52.0 °F 44.3 °F 30.16 in NW 3.7 mph -999.0 mph 75 % 0 in
13:59 52.0 °F 44.3 °F 30.16 in NNW 1.7 mph -999.0 mph 75 % 0 in
14:14 51.1 °F 44.1 °F 30.16 in NW 3.7 mph -999.0 mph 77 % 0 in
14:29 50.4 °F 43.8 °F 30.16 in WNW 3.2 mph -999.0 mph 78 % 0 in
14:45 50.7 °F 43.8 °F 30.16 in NW 4.7 mph -999.0 mph 77 % 0 in
15:00 51.1 °F 43.8 °F 30.16 in WNW 2.2 mph -999.0 mph 76 % 0 in
15:15 50.5 °F 43.6 °F 30.15 in Calm   -999.0 mph 77 % 0 in
15:31 49.8 °F 42.5 °F 30.15 in NNW 4.7 mph -999.0 mph 76 % 0 in
15:46 50.0 °F 43.1 °F 30.16 in NW 5.8 mph -999.0 mph 77 % 0 in
16:01 49.5 °F 42.2 °F 30.16 in North 1.1 mph -999.0 mph 76 % 0 in
16:17 48.2 °F 42.0 °F 30.16 in SSE 1.7 mph -999.0 mph 79 % 0 in
16:32 47.3 °F 42.1 °F 30.16 in SE 1.7 mph -999.0 mph 82 % 0 in
16:47 46.4 °F 41.5 °F 30.16 in Calm   -999.0 mph 83 % 0 in
17:02 45.5 °F 40.9 °F 30.15 in WSW 1.7 mph -999.0 mph 84 % 0 in
17:17 45.1 °F 40.9 °F 30.15 in Calm   -999.0 mph 85 % 0 in
17:33 44.6 °F 40.4 °F 30.15 in WNW 2.2 mph -999.0 mph 85 % 0 in
17:48 44.4 °F 40.5 °F 30.15 in Calm   -999.0 mph 86 % 0 in
18:03 44.4 °F 39.9 °F 30.15 in Calm   -999.0 mph 84 % 0 in
18:18 43.9 °F 39.4 °F 30.15 in Calm   -999.0 mph 84 % 0 in
18:49 43.5 °F 38.4 °F 30.15 in South 3.7 mph -999.0 mph 82 % 0 in
19:04 42.6 °F 37.5 °F 30.14 in Calm   -999.0 mph 82 % 0 in
19:20 42.3 °F 36.6 °F 30.14 in SSE 1.1 mph -999.0 mph 80 % 0 in
19:35 42.4 °F 37.3 °F 30.15 in Calm   -999.0 mph 82 % 0 in
19:50 42.3 °F 37.2 °F 30.16 in Calm   -999.0 mph 82 % 0 in
20:05 41.5 °F 37.0 °F 30.16 in Calm   -999.0 mph 84 % 0 in
20:20 41.0 °F 36.5 °F 30.15 in Calm   -999.0 mph 84 % 0 in
20:36 40.1 °F 35.7 °F 30.15 in Calm   -999.0 mph 84 % 0 in
20:51 39.6 °F 35.2 °F 30.15 in Calm   -999.0 mph 84 % 0 in
21:06 39.6 °F 35.2 °F 30.16 in Calm   -999.0 mph 84 % 0 in
21:21 40.1 °F 35.4 °F 30.16 in Calm   -999.0 mph 83 % 0 in
21:36 40.5 °F 35.1 °F 30.16 in SSE 2.2 mph -999.0 mph 81 % 0 in
21:52 39.7 °F 34.0 °F 30.16 in Calm   -999.0 mph 80 % 0 in
22:07 39.2 °F 33.6 °F 30.16 in Calm   -999.0 mph 80 % 0 in
22:22 38.5 °F 32.9 °F 30.15 in Calm   -999.0 mph 80 % 0 in
22:37 39.2 °F 32.3 °F 30.15 in Calm   -999.0 mph 76 % 0 in
22:53 37.9 °F 31.7 °F 30.15 in South 2.7 mph -999.0 mph 78 % 0 in
23:08 38.5 °F 30.9 °F 30.15 in South 1.7 mph -999.0 mph 74 % 0 in
23:23 37.8 °F 30.3 °F 30.15 in South 1.7 mph -999.0 mph 74 % 0 in
23:38 37.4 °F 28.9 °F 30.14 in SSE 1.7 mph -999.0 mph 71 % 0 in
23:54 37.8 °F 27.8 °F 30.15 in South 2.2 mph -999.0 mph 67 % 0 in
Big Bear CA Weather
Compliments of Weather Underground - 1.5 mb